createdAt,value
2019-02-28T00:01:51.099Z,10.70
2019-02-28T00:04:20.479Z,10.70
2019-02-28T00:06:49.853Z,10.70
2019-02-28T00:09:19.253Z,10.60
2019-02-28T00:11:48.607Z,10.60
2019-02-28T00:14:18.012Z,10.60
2019-02-28T00:16:47.387Z,10.60
2019-02-28T00:19:16.797Z,10.50
2019-02-28T00:21:46.193Z,10.50
2019-02-28T00:24:15.560Z,10.50
2019-02-28T00:26:47.572Z,10.40
2019-02-28T00:29:16.141Z,10.40
2019-02-28T00:31:49.450Z,10.30
2019-02-28T00:34:16.668Z,10.30
2019-02-28T00:36:46.134Z,10.30
2019-02-28T00:39:15.496Z,10.30
2019-02-28T00:41:44.877Z,10.20
2019-02-28T00:44:14.340Z,10.20
2019-02-28T00:46:45.166Z,10.20
2019-02-28T00:49:14.976Z,10.20
2019-02-28T00:51:44.455Z,10.20
2019-02-28T00:54:13.837Z,10.10
2019-02-28T00:56:43.300Z,10.10
2019-02-28T00:59:12.756Z,10.10
2019-02-28T01:01:43.091Z,10.10
2019-02-28T01:04:13.202Z,10.00
2019-02-28T01:06:42.660Z,10.00
2019-02-28T01:09:12.066Z,10.00
2019-02-28T01:11:44.726Z,10.00
2019-02-28T01:14:12.528Z,10.00
2019-02-28T01:16:41.950Z,9.90
2019-02-28T01:19:11.391Z,9.90
2019-02-28T01:21:40.780Z,9.90
2019-02-28T01:24:10.168Z,9.90
2019-02-28T01:26:39.522Z,9.90
2019-02-28T01:29:08.928Z,9.90
2019-02-28T01:31:38.270Z,9.80
2019-02-28T01:34:07.716Z,9.80
2019-02-28T01:36:37.013Z,9.80
2019-02-28T01:39:08.348Z,9.80
2019-02-28T01:41:37.766Z,9.80
2019-02-28T01:44:07.088Z,9.80
2019-02-28T01:46:36.546Z,9.80
2019-02-28T01:49:05.974Z,9.80
2019-02-28T01:51:36.671Z,9.80
2019-02-28T01:54:06.336Z,9.70
2019-02-28T01:56:36.996Z,9.70
2019-02-28T01:59:06.805Z,9.70
2019-02-28T02:01:36.137Z,9.70
2019-02-28T02:04:05.430Z,9.60
2019-02-28T02:06:34.752Z,9.60
2019-02-28T02:09:08.164Z,9.60
2019-02-28T02:11:36.692Z,9.60
2019-02-28T02:14:07.468Z,9.60
2019-02-28T02:16:37.215Z,9.60
2019-02-28T02:19:06.657Z,9.60
2019-02-28T02:21:36.017Z,9.50
2019-02-28T02:24:05.541Z,9.50
2019-02-28T02:26:34.945Z,9.50
2019-02-28T02:29:04.362Z,9.50
2019-02-28T02:31:33.748Z,9.50
2019-02-28T02:34:03.118Z,9.50
2019-02-28T02:36:32.555Z,9.50
2019-02-28T02:39:02.008Z,9.50
2019-02-28T02:41:33.350Z,9.50
2019-02-28T02:44:02.481Z,9.50
2019-02-28T02:46:31.837Z,9.50
2019-02-28T02:49:01.298Z,9.50
2019-02-28T02:51:30.711Z,9.50
2019-02-28T02:54:00.146Z,9.50
2019-02-28T02:56:29.542Z,9.50
2019-02-28T02:59:01.119Z,9.50
2019-02-28T03:01:30.079Z,9.50
2019-02-28T03:03:59.459Z,9.40
2019-02-28T03:06:28.916Z,9.40
2019-02-28T03:08:58.282Z,9.30
2019-02-28T03:11:27.698Z,9.30
2019-02-28T03:13:57.159Z,9.30
2019-02-28T03:16:26.535Z,9.30
2019-02-28T03:18:58.231Z,9.30
2019-02-28T03:21:27.065Z,9.20
2019-02-28T03:23:56.495Z,9.20
2019-02-28T03:26:25.936Z,9.20
2019-02-28T03:28:55.732Z,9.10
2019-02-28T03:31:25.131Z,9.20
2019-02-28T03:33:54.530Z,9.10
2019-02-28T03:36:23.971Z,9.10
2019-02-28T03:38:53.334Z,9.10
2019-02-28T03:41:22.675Z,9.10
2019-02-28T03:43:52.090Z,9.10
2019-02-28T03:46:21.507Z,9.00
2019-02-28T03:48:50.824Z,9.00
2019-02-28T03:51:20.199Z,9.00
2019-02-28T03:53:55.630Z,9.00
2019-02-28T03:56:20.620Z,9.00
2019-02-28T03:58:49.998Z,9.00
2019-02-28T04:01:19.452Z,8.90
2019-02-28T04:03:48.898Z,8.90
2019-02-28T04:06:18.356Z,8.90
2019-02-28T04:08:47.772Z,8.90
2019-02-28T04:11:17.193Z,8.90
2019-02-28T04:13:46.555Z,8.80
2019-02-28T04:16:15.983Z,8.80
2019-02-28T04:18:46.745Z,8.80
2019-02-28T04:21:16.444Z,8.80
2019-02-28T04:23:45.915Z,8.80
2019-02-28T04:26:15.263Z,8.80
2019-02-28T04:28:44.712Z,8.80
2019-02-28T04:31:18.720Z,8.70
2019-02-28T04:33:45.277Z,8.70
2019-02-28T04:36:14.694Z,8.70
2019-02-28T04:38:44.147Z,8.70
2019-02-28T04:41:13.509Z,8.70
2019-02-28T04:43:44.388Z,8.70
2019-02-28T04:46:13.955Z,8.70
2019-02-28T04:48:45.671Z,8.70
2019-02-28T04:51:14.455Z,8.70
2019-02-28T04:53:43.864Z,8.70
2019-02-28T04:56:13.309Z,8.80
2019-02-28T04:58:42.747Z,8.70
2019-02-28T05:01:12.487Z,8.70
2019-02-28T05:03:42.933Z,8.70
2019-02-28T05:06:12.285Z,8.70
2019-02-28T05:08:41.626Z,8.70
2019-02-28T05:11:10.985Z,8.70
2019-02-28T05:13:41.184Z,8.70
2019-02-28T05:16:12.352Z,8.70
2019-02-28T05:18:41.918Z,8.70
2019-02-28T05:21:11.323Z,8.60
2019-02-28T05:23:40.874Z,8.60
2019-02-28T05:26:10.298Z,8.60
2019-02-28T05:28:41.163Z,8.60
2019-02-28T05:31:11.022Z,8.60
2019-02-28T05:33:41.903Z,8.60
2019-02-28T05:36:11.468Z,8.60
2019-02-28T05:38:40.859Z,8.60
2019-02-28T05:41:12.212Z,8.60
2019-02-28T05:43:41.366Z,8.60
2019-02-28T05:46:10.780Z,8.60
2019-02-28T05:48:40.172Z,8.60
2019-02-28T05:51:09.490Z,8.60
2019-02-28T05:53:41.355Z,8.50
2019-02-28T05:56:09.950Z,8.50
2019-02-28T05:58:39.412Z,8.50
2019-02-28T06:01:11.831Z,8.50
2019-02-28T06:03:39.922Z,8.50
2019-02-28T06:06:09.428Z,8.50
2019-02-28T06:08:39.147Z,8.50
2019-02-28T06:11:09.383Z,8.50
2019-02-28T06:13:38.785Z,8.50
2019-02-28T06:16:11.284Z,8.50
2019-02-28T06:18:39.332Z,8.50
2019-02-28T06:21:10.309Z,8.50
2019-02-28T06:23:40.782Z,8.50
2019-02-28T06:26:10.961Z,8.60
2019-02-28T06:28:40.447Z,8.60
2019-02-28T06:31:09.896Z,8.60
2019-02-28T06:33:39.281Z,8.60
2019-02-28T06:36:08.680Z,8.60
2019-02-28T06:38:38.150Z,8.60
2019-02-28T06:41:08.594Z,8.60
2019-02-28T06:43:38.129Z,8.70
2019-02-28T06:46:08.507Z,8.70
2019-02-28T06:48:38.634Z,8.70
2019-02-28T06:51:08.080Z,8.70
2019-02-28T06:53:39.277Z,8.80
2019-02-28T06:56:09.069Z,8.80
2019-02-28T06:58:38.478Z,8.80
2019-02-28T07:01:07.948Z,8.90
2019-02-28T07:03:38.915Z,8.90
2019-02-28T07:06:08.464Z,8.90
2019-02-28T07:08:37.891Z,9.00
2019-02-28T07:11:07.395Z,9.00
2019-02-28T07:13:39.999Z,9.10
2019-02-28T07:16:07.914Z,9.10
2019-02-28T07:18:37.359Z,9.20
2019-02-28T07:21:07.850Z,9.20
2019-02-28T07:23:38.081Z,9.20
2019-02-28T07:26:07.546Z,9.30
2019-02-28T07:28:37.684Z,9.30
2019-02-28T07:31:07.457Z,9.30
2019-02-28T07:33:36.828Z,9.20
2019-02-28T07:36:09.588Z,9.10
2019-02-28T07:38:37.332Z,9.10
2019-02-28T07:41:06.803Z,8.90
2019-02-28T07:43:36.239Z,8.80
2019-02-28T07:46:07.701Z,8.80
2019-02-28T07:48:36.766Z,8.80
2019-02-28T07:51:06.163Z,8.80
2019-02-28T07:53:35.604Z,8.90
2019-02-28T07:56:07.165Z,8.90
2019-02-28T07:58:36.101Z,9.00
2019-02-28T08:01:05.502Z,9.00
2019-02-28T08:03:34.874Z,9.10
2019-02-28T08:06:05.635Z,9.10
2019-02-28T08:08:35.235Z,9.20
2019-02-28T08:11:04.839Z,9.20
2019-02-28T08:13:34.662Z,9.30
2019-02-28T08:16:05.484Z,9.40
2019-02-28T08:18:34.924Z,9.40
2019-02-28T08:21:05.291Z,9.50
2019-02-28T08:23:37.415Z,9.60
2019-02-28T08:26:06.578Z,9.60
2019-02-28T08:28:36.920Z,9.70
2019-02-28T08:31:07.474Z,9.80
2019-02-28T08:33:36.906Z,9.80
2019-02-28T08:36:11.645Z,9.90
2019-02-28T08:38:37.592Z,10.00
2019-02-28T08:41:07.058Z,10.00
2019-02-28T08:43:36.475Z,10.10
2019-02-28T08:46:09.737Z,10.10
2019-02-28T08:48:37.074Z,10.20
2019-02-28T08:51:06.560Z,10.20
2019-02-28T08:53:35.962Z,10.20
2019-02-28T08:56:05.350Z,10.30
2019-02-28T08:58:37.746Z,10.30
2019-02-28T09:01:07.551Z,10.30
2019-02-28T09:03:36.927Z,10.40
2019-02-28T09:06:07.426Z,10.40
2019-02-28T09:08:37.294Z,10.50
2019-02-28T09:11:06.796Z,10.50
2019-02-28T09:13:36.176Z,10.50
2019-02-28T09:16:05.660Z,10.50
2019-02-28T09:18:35.095Z,10.60
2019-02-28T09:21:04.571Z,10.60
2019-02-28T09:23:34.447Z,10.60
2019-02-28T09:26:05.041Z,10.70
2019-02-28T09:28:34.362Z,10.70
2019-02-28T09:31:05.136Z,10.70
2019-02-28T09:33:34.926Z,10.70
2019-02-28T09:36:04.430Z,10.80
2019-02-28T09:38:33.861Z,10.70
2019-02-28T09:41:04.543Z,10.70
2019-02-28T09:43:34.557Z,10.70
2019-02-28T09:46:03.975Z,10.80
2019-02-28T09:48:34.062Z,10.80
2019-02-28T09:51:04.552Z,10.80
2019-02-28T09:53:34.031Z,10.80
2019-02-28T09:56:08.910Z,10.80
2019-02-28T09:58:34.591Z,10.90
2019-02-28T10:01:04.081Z,10.90
2019-02-28T10:03:34.663Z,10.90
2019-02-28T10:06:04.306Z,10.90
2019-02-28T10:08:36.626Z,10.90
2019-02-28T10:11:04.806Z,10.90
2019-02-28T10:13:34.182Z,11.00
2019-02-28T10:16:03.736Z,11.00
2019-02-28T10:18:35.532Z,11.00
2019-02-28T10:21:04.308Z,11.10
2019-02-28T10:23:33.729Z,11.20
2019-02-28T10:26:03.106Z,11.20
2019-02-28T10:28:32.495Z,11.30
2019-02-28T10:31:01.931Z,11.30
2019-02-28T10:33:31.350Z,11.40
2019-02-28T10:36:00.787Z,11.40
2019-02-28T10:38:32.921Z,11.50
2019-02-28T10:41:01.259Z,11.50
2019-02-28T10:43:30.696Z,11.60
2019-02-28T10:46:00.019Z,11.70
2019-02-28T10:48:29.503Z,11.80
2019-02-28T10:50:58.962Z,11.80
2019-02-28T10:53:29.600Z,11.90
2019-02-28T10:55:59.237Z,11.80
2019-02-28T10:58:28.660Z,11.90
2019-02-28T11:00:58.056Z,11.90
2019-02-28T11:03:31.826Z,12.00
2019-02-28T11:05:58.606Z,12.00
2019-02-28T11:08:28.014Z,12.20
2019-02-28T11:10:57.536Z,12.30
2019-02-28T11:13:28.545Z,12.30
2019-02-28T11:15:57.974Z,12.30
2019-02-28T11:18:27.413Z,12.30
2019-02-28T11:20:58.247Z,12.30
2019-02-28T11:23:27.970Z,12.30
2019-02-28T11:25:57.406Z,12.30
2019-02-28T11:28:28.231Z,12.40
2019-02-28T11:30:57.954Z,12.40
2019-02-28T11:33:27.331Z,12.40
2019-02-28T11:35:59.029Z,12.40
2019-02-28T11:38:27.889Z,12.50
2019-02-28T11:40:57.729Z,12.60
2019-02-28T11:43:27.274Z,12.60
2019-02-28T11:46:00.869Z,12.60
2019-02-28T11:48:28.329Z,12.60
2019-02-28T11:50:57.750Z,12.60
2019-02-28T11:53:27.103Z,12.70
2019-02-28T11:55:56.621Z,12.70
2019-02-28T11:58:26.062Z,12.70
2019-02-28T12:00:55.424Z,12.70
2019-02-28T12:03:24.836Z,12.80
2019-02-28T12:05:54.227Z,12.80
2019-02-28T12:08:23.653Z,12.90
2019-02-28T12:10:52.977Z,12.90
2019-02-28T12:13:22.338Z,12.90
2019-02-28T12:15:51.695Z,13.00
2019-02-28T12:18:21.055Z,13.00
2019-02-28T12:20:50.846Z,13.00
2019-02-28T12:23:23.456Z,13.00
2019-02-28T12:25:51.371Z,13.00
2019-02-28T12:28:20.715Z,13.10
2019-02-28T12:30:50.500Z,13.10
2019-02-28T12:33:23.132Z,13.10
2019-02-28T12:35:51.018Z,13.10
2019-02-28T12:38:20.503Z,13.20
2019-02-28T12:40:49.823Z,13.30
2019-02-28T12:43:19.191Z,13.40
2019-02-28T12:45:48.602Z,13.40
2019-02-28T12:48:17.939Z,13.50
2019-02-28T12:50:47.335Z,13.60
2019-02-28T12:53:16.812Z,13.60
2019-02-28T12:55:46.176Z,13.60
2019-02-28T12:58:15.582Z,13.60
2019-02-28T13:00:45.024Z,13.60
2019-02-28T13:03:19.240Z,13.70
2019-02-28T13:05:48.171Z,13.70
2019-02-28T13:08:16.583Z,13.70
2019-02-28T13:10:46.023Z,13.70
2019-02-28T13:13:15.432Z,13.80
2019-02-28T13:15:45.726Z,14.00
2019-02-28T13:18:16.056Z,14.00
2019-02-28T13:20:45.497Z,14.10
2019-02-28T13:23:17.041Z,14.00
2019-02-28T13:25:46.053Z,14.10
2019-02-28T13:28:18.121Z,14.10
2019-02-28T13:30:50.174Z,14.10
2019-02-28T13:33:17.828Z,14.10
2019-02-28T13:35:47.743Z,14.10
2019-02-28T13:38:19.298Z,14.20
2019-02-28T13:40:49.141Z,14.20
2019-02-28T13:43:20.971Z,14.20
2019-02-28T13:45:50.894Z,14.20
2019-02-28T13:48:26.212Z,14.20
2019-02-28T13:50:51.852Z,14.30
2019-02-28T13:53:23.258Z,14.40
2019-02-28T13:55:53.044Z,14.50
2019-02-28T13:58:23.626Z,14.80
2019-02-28T14:00:52.990Z,14.80
2019-02-28T14:03:22.355Z,14.80
2019-02-28T14:05:51.870Z,14.90
2019-02-28T14:08:21.252Z,14.80
2019-02-28T14:10:51.311Z,14.80
2019-02-28T14:13:20.710Z,14.80
2019-02-28T14:15:52.380Z,14.80
2019-02-28T14:18:21.366Z,14.90
2019-02-28T14:20:50.686Z,15.10
2019-02-28T14:23:20.747Z,15.10
2019-02-28T14:25:51.136Z,15.10
2019-02-28T14:28:20.791Z,15.10
2019-02-28T14:30:50.248Z,15.10
2019-02-28T14:33:20.767Z,15.00
2019-02-28T14:35:50.460Z,15.10
2019-02-28T14:38:19.890Z,15.10
2019-02-28T14:40:49.644Z,15.10
2019-02-28T14:43:20.742Z,15.10
2019-02-28T14:45:50.482Z,15.10
2019-02-28T14:48:19.927Z,15.10
2019-02-28T14:50:50.677Z,15.20
2019-02-28T14:53:20.462Z,15.30
2019-02-28T14:55:49.830Z,15.50
2019-02-28T14:58:21.289Z,15.60
2019-02-28T15:00:50.509Z,15.70
2019-02-28T15:03:19.965Z,15.70
2019-02-28T15:05:52.295Z,15.70
2019-02-28T15:08:20.424Z,15.70
2019-02-28T15:10:49.877Z,15.70
2019-02-28T15:13:19.561Z,15.70
2019-02-28T15:15:49.519Z,15.80
2019-02-28T15:18:20.131Z,15.80
2019-02-28T15:20:49.555Z,15.90
2019-02-28T15:23:19.017Z,16.00
2019-02-28T15:25:50.789Z,16.00
2019-02-28T15:28:19.873Z,16.00
2019-02-28T15:30:49.286Z,15.90
2019-02-28T15:33:18.631Z,15.90
2019-02-28T15:35:49.888Z,16.00
2019-02-28T15:38:19.070Z,15.90
2019-02-28T15:40:48.542Z,15.90
2019-02-28T15:43:18.503Z,15.90
2019-02-28T15:45:48.095Z,15.90
2019-02-28T15:48:17.536Z,15.80
2019-02-28T15:50:51.197Z,15.80
2019-02-28T15:53:18.005Z,15.70
2019-02-28T15:55:47.452Z,15.80
2019-02-28T15:58:16.926Z,15.70
2019-02-28T16:00:46.417Z,15.70
2019-02-28T16:03:16.628Z,15.80
2019-02-28T16:05:47.115Z,15.80
2019-02-28T16:08:16.529Z,15.80
2019-02-28T16:10:53.240Z,15.80
2019-02-28T16:13:17.065Z,15.80
2019-02-28T16:15:49.875Z,15.70
2019-02-28T16:18:17.700Z,15.80
2019-02-28T16:20:47.169Z,15.70
2019-02-28T16:23:16.595Z,15.70
2019-02-28T16:25:46.842Z,15.60
2019-02-28T16:28:17.177Z,15.60
2019-02-28T16:30:46.638Z,15.50
2019-02-28T16:33:15.994Z,15.50
2019-02-28T16:35:46.623Z,15.50
2019-02-28T16:38:16.498Z,15.50
2019-02-28T16:40:45.928Z,15.50
2019-02-28T16:43:17.415Z,15.40
2019-02-28T16:45:48.803Z,15.30
2019-02-28T16:48:18.252Z,15.20
2019-02-28T16:50:50.688Z,15.10
2019-02-28T16:53:18.801Z,15.10
2019-02-28T16:55:48.291Z,15.10
2019-02-28T16:58:18.582Z,15.00
2019-02-28T17:00:48.879Z,15.00
2019-02-28T17:03:18.327Z,14.90
2019-02-28T17:05:47.811Z,14.90
2019-02-28T17:08:18.701Z,14.90
2019-02-28T17:10:48.797Z,14.80
2019-02-28T17:13:38.671Z,14.80
2019-02-28T17:16:39.386Z,14.70
2019-02-28T17:19:08.897Z,14.60
2019-02-28T17:21:38.336Z,14.50
2019-02-28T17:24:08.639Z,14.40
2019-02-28T17:26:51.905Z,14.30
2019-02-28T17:29:40.335Z,14.20
2019-02-28T17:32:09.927Z,14.10
2019-02-28T17:34:39.493Z,14.00
2019-02-28T17:37:09.096Z,14.00
2019-02-28T17:39:38.663Z,13.90
2019-02-28T17:42:09.035Z,13.80
2019-02-28T17:44:57.955Z,13.80
2019-02-28T17:48:09.621Z,13.70
2019-02-28T17:51:01.859Z,13.60
2019-02-28T17:54:00.091Z,13.50
2019-02-28T17:57:28.920Z,13.50
2019-02-28T18:00:41.096Z,13.40
2019-02-28T18:04:02.522Z,13.30
2019-02-28T18:07:14.905Z,13.30
2019-02-28T18:10:24.338Z,13.20
2019-02-28T18:13:36.779Z,13.10
2019-02-28T18:16:42.379Z,13.10
2019-02-28T18:20:17.345Z,13.10
2019-02-28T18:23:36.686Z,13.10
2019-02-28T18:26:25.782Z,13.10
2019-02-28T18:29:25.591Z,13.10
2019-02-28T18:31:57.067Z,13.00
2019-02-28T18:34:29.441Z,13.00
2019-02-28T18:36:59.204Z,12.90
2019-02-28T18:39:28.803Z,12.90
2019-02-28T18:41:58.883Z,12.80
2019-02-28T18:44:28.930Z,12.80
2019-02-28T18:47:02.929Z,12.80
2019-02-28T18:49:30.960Z,12.70
2019-02-28T18:52:01.319Z,12.70
2019-02-28T18:54:31.563Z,12.60
2019-02-28T18:57:01.535Z,12.60
2019-02-28T18:59:31.623Z,12.60
2019-02-28T19:02:01.634Z,12.50
2019-02-28T19:04:31.745Z,12.50
2019-02-28T19:07:01.654Z,12.50
2019-02-28T19:09:31.494Z,12.50
2019-02-28T19:12:01.616Z,12.50
2019-02-28T19:14:31.485Z,12.40
2019-02-28T19:17:01.419Z,12.40
2019-02-28T19:19:31.263Z,12.40
2019-02-28T19:22:01.349Z,12.40
2019-02-28T19:24:31.122Z,12.40
2019-02-28T19:27:00.942Z,12.30
2019-02-28T19:29:30.623Z,12.30
2019-02-28T19:32:00.566Z,12.30
2019-02-28T19:34:30.212Z,12.30
2019-02-28T19:37:00.282Z,12.20
2019-02-28T19:39:30.026Z,12.20
2019-02-28T19:41:59.815Z,12.20
2019-02-28T19:44:29.361Z,12.20
2019-02-28T19:46:58.883Z,12.20
2019-02-28T19:49:28.560Z,12.10
2019-02-28T19:51:58.193Z,12.10
2019-02-28T19:54:27.958Z,12.10
2019-02-28T19:56:57.843Z,12.00
2019-02-28T19:59:27.479Z,12.00
2019-02-28T20:01:57.213Z,12.00
2019-02-28T20:04:26.943Z,12.00
2019-02-28T20:06:56.440Z,12.00
2019-02-28T20:09:25.837Z,12.00
2019-02-28T20:11:55.430Z,11.90
2019-02-28T20:14:25.117Z,11.90
2019-02-28T20:16:54.675Z,11.90
2019-02-28T20:19:24.495Z,11.90
2019-02-28T20:21:54.626Z,11.90
2019-02-28T20:24:24.492Z,11.80
2019-02-28T20:26:54.611Z,11.90
2019-02-28T20:29:24.398Z,11.80
2019-02-28T20:31:54.209Z,11.80
2019-02-28T20:34:23.838Z,11.80
2019-02-28T20:36:53.351Z,11.80
2019-02-28T20:39:23.111Z,11.80
2019-02-28T20:41:52.609Z,11.80
2019-02-28T20:44:22.070Z,11.70
2019-02-28T20:46:51.509Z,11.80
2019-02-28T20:49:21.071Z,11.80
2019-02-28T20:51:55.144Z,11.80
2019-02-28T20:54:22.019Z,11.70
2019-02-28T20:56:51.559Z,11.70
2019-02-28T20:59:21.090Z,11.70
2019-02-28T21:01:50.518Z,11.70
2019-02-28T21:04:19.950Z,11.70
2019-02-28T21:06:49.372Z,11.70
2019-02-28T21:09:19.529Z,11.70
2019-02-28T21:11:49.037Z,11.80
2019-02-28T21:14:18.434Z,11.80
2019-02-28T21:16:47.879Z,11.80
2019-02-28T21:19:17.386Z,11.80
2019-02-28T21:21:46.760Z,11.80
2019-02-28T21:24:16.211Z,11.80
2019-02-28T21:26:45.673Z,11.80
2019-02-28T21:29:15.169Z,11.70
2019-02-28T21:31:44.622Z,11.70
2019-02-28T21:34:14.142Z,11.70
2019-02-28T21:36:43.667Z,11.60
2019-02-28T21:39:13.288Z,11.60
2019-02-28T21:41:42.668Z,11.60
2019-02-28T21:44:12.044Z,11.60
2019-02-28T21:46:41.417Z,11.50
2019-02-28T21:49:10.810Z,11.50
2019-02-28T21:51:40.171Z,11.50
2019-02-28T21:54:09.565Z,11.50
2019-02-28T21:56:38.898Z,11.50
2019-02-28T21:59:08.206Z,11.50
2019-02-28T22:01:37.613Z,11.50
2019-02-28T22:04:06.991Z,11.50
2019-02-28T22:06:36.441Z,11.50
2019-02-28T22:09:08.026Z,11.50
2019-02-28T22:11:37.410Z,11.50
2019-02-28T22:14:06.844Z,11.50
2019-02-28T22:16:36.348Z,11.50
2019-02-28T22:19:05.715Z,11.50
2019-02-28T22:21:35.948Z,11.40
2019-02-28T22:24:05.446Z,11.40
2019-02-28T22:26:34.895Z,11.40
2019-02-28T22:29:06.043Z,11.40
2019-02-28T22:31:52.994Z,11.40
2019-02-28T22:34:47.366Z,11.40
2019-02-28T22:37:16.875Z,11.40
2019-02-28T22:39:46.322Z,11.40
2019-02-28T22:42:22.197Z,11.40
2019-02-28T22:44:46.921Z,11.30
2019-02-28T22:47:16.346Z,11.30
2019-02-28T22:49:45.714Z,11.30
2019-02-28T22:52:15.097Z,11.30
2019-02-28T22:54:44.577Z,11.30
2019-02-28T22:57:14.004Z,11.30
2019-02-28T22:59:43.357Z,11.30
2019-02-28T23:02:12.882Z,11.30
2019-02-28T23:04:42.253Z,11.30
2019-02-28T23:07:11.621Z,11.20
2019-02-28T23:09:41.045Z,11.10
2019-02-28T23:12:10.784Z,10.80
2019-02-28T23:14:40.188Z,10.70
2019-02-28T23:17:09.584Z,10.60
2019-02-28T23:19:38.942Z,10.30
2019-02-28T23:22:08.346Z,10.20
2019-02-28T23:24:37.772Z,10.20
2019-02-28T23:27:19.997Z,10.20
2019-02-28T23:30:20.502Z,10.20
2019-02-28T23:33:18.569Z,10.20
2019-02-28T23:35:49.135Z,10.20
2019-02-28T23:38:18.519Z,10.20
2019-02-28T23:40:47.970Z,10.20
2019-02-28T23:43:17.333Z,10.20
2019-02-28T23:45:46.742Z,10.20
2019-02-28T23:48:16.101Z,10.20
2019-02-28T23:50:45.519Z,10.00
2019-02-28T23:53:14.923Z,9.90
2019-02-28T23:55:44.374Z,9.90
2019-02-28T23:58:13.842Z,9.90
